createdAt,value
2017-11-04T00:01:42.629Z,92.21
2017-11-04T00:04:10.881Z,92.42
2017-11-04T00:06:39.165Z,92.59
2017-11-04T00:09:07.440Z,92.68
2017-11-04T00:11:35.691Z,92.85
2017-11-04T00:14:04.709Z,92.86
2017-11-04T00:16:32.966Z,92.91
2017-11-04T00:19:01.370Z,93.12
2017-11-04T00:21:29.613Z,93.06
2017-11-04T00:23:57.866Z,93.21
2017-11-04T00:26:26.113Z,93.31
2017-11-04T00:28:54.370Z,93.40
2017-11-04T00:31:22.621Z,93.41
2017-11-04T00:33:51.646Z,93.37
2017-11-04T00:36:19.885Z,93.22
2017-11-04T00:38:48.911Z,93.20
2017-11-04T00:41:17.153Z,93.18
2017-11-04T00:43:46.177Z,93.38
2017-11-04T00:46:14.438Z,93.42
2017-11-04T00:48:43.453Z,93.47
2017-11-04T00:51:11.705Z,93.46
2017-11-04T00:53:39.969Z,93.42
2017-11-04T00:56:08.986Z,93.46
2017-11-04T00:58:37.243Z,93.48
2017-11-04T01:01:05.501Z,93.44
2017-11-04T01:03:33.753Z,93.42
2017-11-04T01:06:02.001Z,93.33
2017-11-04T01:08:30.257Z,93.36
2017-11-04T01:10:58.510Z,93.31
2017-11-04T01:13:27.533Z,93.37
2017-11-04T01:15:55.770Z,93.41
2017-11-04T01:18:24.027Z,93.55
2017-11-04T01:20:52.277Z,93.52
2017-11-04T01:23:20.538Z,93.59
2017-11-04T01:25:48.796Z,93.67
2017-11-04T01:28:17.810Z,93.71
2017-11-04T01:30:46.063Z,93.64
2017-11-04T01:33:15.087Z,93.57
2017-11-04T01:35:43.333Z,93.66
2017-11-04T01:38:11.593Z,93.66
2017-11-04T01:40:40.607Z,93.66
2017-11-04T01:43:08.856Z,93.78
2017-11-04T01:45:37.102Z,93.71
2017-11-04T01:48:05.355Z,93.79
2017-11-04T01:50:33.610Z,93.84
2017-11-04T01:53:01.874Z,93.87
2017-11-04T01:55:30.892Z,93.94
2017-11-04T01:57:59.151Z,94.00
2017-11-04T02:00:27.393Z,94.08
2017-11-04T02:02:55.653Z,94.11
2017-11-04T02:05:23.900Z,94.10
2017-11-04T02:07:52.149Z,94.10
2017-11-04T02:10:20.410Z,94.09
2017-11-04T02:12:49.422Z,94.13
2017-11-04T02:15:17.678Z,94.18
2017-11-04T02:17:46.691Z,94.15
2017-11-04T02:20:14.949Z,94.20
2017-11-04T02:22:43.962Z,94.23
2017-11-04T02:25:12.217Z,94.27
2017-11-04T02:27:41.241Z,94.30
2017-11-04T02:30:09.500Z,94.31
2017-11-04T02:32:37.754Z,94.29
2017-11-04T02:35:06.783Z,94.31
2017-11-04T02:37:35.024Z,94.30
2017-11-04T02:40:04.042Z,94.26
2017-11-04T02:42:32.294Z,94.22
2017-11-04T02:45:01.323Z,94.29
2017-11-04T02:47:29.578Z,94.30
2017-11-04T02:49:57.828Z,94.27
2017-11-04T02:52:26.069Z,94.30
2017-11-04T02:54:54.327Z,94.31
2017-11-04T02:57:22.569Z,94.33
2017-11-04T02:59:51.589Z,94.34
2017-11-04T03:02:19.835Z,94.32
2017-11-04T03:04:48.869Z,94.41
2017-11-04T03:07:17.118Z,94.42
2017-11-04T03:09:45.370Z,94.44
2017-11-04T03:12:13.614Z,94.42
2017-11-04T03:14:41.875Z,94.41
2017-11-04T03:17:10.128Z,94.39
2017-11-04T03:19:38.377Z,94.40
2017-11-04T03:22:07.391Z,94.32
2017-11-04T03:24:35.641Z,94.30
2017-11-04T03:27:04.655Z,94.30
2017-11-04T03:29:32.906Z,94.29
2017-11-04T03:32:01.159Z,94.30
2017-11-04T03:34:29.411Z,94.35
2017-11-04T03:36:57.655Z,94.30
2017-11-04T03:39:25.938Z,94.35
2017-11-04T03:41:54.189Z,94.29
2017-11-04T03:44:23.218Z,94.38
2017-11-04T03:46:51.476Z,94.41
2017-11-04T03:49:19.742Z,94.33
2017-11-04T03:51:48.762Z,94.34
2017-11-04T03:54:17.025Z,94.37
2017-11-04T03:56:45.285Z,94.37
2017-11-04T03:59:14.304Z,94.38
2017-11-04T04:01:42.562Z,94.36
2017-11-04T04:04:11.580Z,94.40
2017-11-04T04:06:39.865Z,94.38
2017-11-04T04:09:08.121Z,94.34
2017-11-04T04:11:36.371Z,94.34
2017-11-04T04:14:05.389Z,94.36
2017-11-04T04:16:33.642Z,94.36
2017-11-04T04:19:02.669Z,94.35
2017-11-04T04:21:30.923Z,94.36
2017-11-04T04:23:59.195Z,94.31
2017-11-04T04:26:27.457Z,94.31
2017-11-04T04:28:56.478Z,94.37
2017-11-04T04:31:24.727Z,94.34
2017-11-04T04:33:53.746Z,94.35
2017-11-04T04:36:21.986Z,94.33
2017-11-04T04:38:51.010Z,94.31
2017-11-04T04:41:19.290Z,94.36
2017-11-04T04:43:47.546Z,94.43
2017-11-04T04:46:16.568Z,94.45
2017-11-04T04:48:44.831Z,94.43
2017-11-04T04:51:13.087Z,94.34
2017-11-04T04:53:42.098Z,94.40
2017-11-04T04:56:10.353Z,94.41
2017-11-04T04:58:39.389Z,94.40
2017-11-04T05:01:07.638Z,94.40
2017-11-04T05:03:35.886Z,94.41
2017-11-04T05:06:04.141Z,94.45
2017-11-04T05:08:32.394Z,94.41
2017-11-04T05:11:00.654Z,94.38
2017-11-04T05:13:28.905Z,94.40
2017-11-04T05:15:57.943Z,94.46
2017-11-04T05:18:26.181Z,94.47
2017-11-04T05:20:54.431Z,94.41
2017-11-04T05:23:22.675Z,94.40
2017-11-04T05:25:50.928Z,94.42
2017-11-04T05:28:19.175Z,94.42
2017-11-04T05:30:48.190Z,94.46
2017-11-04T05:33:16.439Z,94.40
2017-11-04T05:35:45.463Z,94.42
2017-11-04T05:38:13.709Z,94.40
2017-11-04T05:40:42.732Z,94.42
2017-11-04T05:43:10.977Z,94.42
2017-11-04T05:45:39.999Z,94.42
2017-11-04T05:48:08.242Z,94.37
2017-11-04T05:50:37.282Z,94.39
2017-11-04T05:53:05.509Z,94.36
2017-11-04T05:55:34.543Z,94.37
2017-11-04T05:58:02.788Z,94.38
2017-11-04T06:00:31.810Z,94.36
2017-11-04T06:03:00.058Z,94.37
2017-11-04T06:05:29.083Z,94.40
2017-11-04T06:07:57.323Z,94.37
2017-11-04T06:10:26.343Z,94.38
2017-11-04T06:12:54.590Z,94.33
2017-11-04T06:15:23.611Z,94.39
2017-11-04T06:17:51.861Z,94.33
2017-11-04T06:20:20.125Z,94.28
2017-11-04T06:22:49.134Z,94.38
2017-11-04T06:25:18.153Z,94.33
2017-11-04T06:27:46.402Z,94.30
2017-11-04T06:30:15.425Z,94.29
2017-11-04T06:32:43.676Z,94.27
2017-11-04T06:35:11.933Z,94.31
2017-11-04T06:37:40.952Z,94.26
2017-11-04T06:40:09.202Z,94.25
2017-11-04T06:42:38.214Z,94.22
2017-11-04T06:45:06.480Z,94.15
2017-11-04T06:47:35.485Z,94.13
2017-11-04T06:50:03.745Z,94.03
2017-11-04T06:52:32.758Z,93.98
2017-11-04T06:55:01.017Z,93.96
2017-11-04T06:57:30.030Z,93.88
2017-11-04T06:59:58.283Z,93.79
2017-11-04T07:02:27.297Z,93.68
2017-11-04T07:04:55.553Z,93.55
2017-11-04T07:07:24.581Z,93.48
2017-11-04T07:09:52.825Z,93.43
2017-11-04T07:12:21.841Z,93.49
2017-11-04T07:14:50.094Z,93.48
2017-11-04T07:17:18.350Z,93.44
2017-11-04T07:19:47.321Z,93.32
2017-11-04T07:22:15.569Z,93.16
2017-11-04T07:24:43.822Z,93.17
2017-11-04T07:27:12.069Z,93.07
2017-11-04T07:29:41.089Z,93.08
2017-11-04T07:32:09.336Z,93.02
2017-11-04T07:34:37.592Z,92.96
2017-11-04T07:37:05.846Z,92.76
2017-11-04T07:39:34.101Z,92.76
2017-11-04T07:42:02.348Z,92.73
2017-11-04T07:44:31.370Z,92.40
2017-11-04T07:46:59.614Z,92.75
2017-11-04T07:49:28.628Z,92.59
2017-11-04T07:51:56.874Z,92.37
2017-11-04T07:54:25.126Z,92.13
2017-11-04T07:56:53.367Z,92.04
2017-11-04T07:59:21.603Z,91.66
2017-11-04T08:01:50.620Z,91.68
2017-11-04T08:04:21.810Z,91.96
2017-11-04T08:06:50.826Z,91.90
2017-11-04T08:09:19.065Z,91.63
2017-11-04T08:11:47.310Z,91.82
2017-11-04T08:14:15.554Z,91.88
2017-11-04T08:16:43.806Z,92.15
2017-11-04T08:19:12.809Z,92.14
2017-11-04T08:21:41.063Z,92.18
2017-11-04T08:24:09.309Z,92.12
2017-11-04T08:26:37.551Z,91.82
2017-11-04T08:29:05.789Z,91.55
2017-11-04T08:31:34.038Z,91.04
2017-11-04T08:34:02.281Z,90.72
2017-11-04T08:36:31.289Z,90.97
2017-11-04T08:38:59.527Z,90.78
2017-11-04T08:41:27.779Z,91.08
2017-11-04T08:43:56.782Z,90.66
2017-11-04T08:46:25.021Z,91.24
2017-11-04T08:48:53.267Z,90.84
2017-11-04T08:51:22.285Z,90.43
2017-11-04T08:53:50.533Z,89.68
2017-11-04T08:56:19.546Z,89.89
2017-11-04T08:58:47.796Z,89.63
2017-11-04T09:01:16.038Z,89.70
2017-11-04T09:03:44.284Z,90.05
2017-11-04T09:06:15.351Z,89.96
2017-11-04T09:08:43.608Z,89.89
2017-11-04T09:11:11.858Z,89.03
2017-11-04T09:13:40.101Z,89.56
2017-11-04T09:16:08.349Z,89.57
2017-11-04T09:18:36.593Z,89.65
2017-11-04T09:21:04.845Z,89.54
2017-11-04T09:23:33.855Z,89.13
2017-11-04T09:26:02.099Z,89.39
2017-11-04T09:28:30.350Z,89.51
2017-11-04T09:30:58.606Z,89.80
2017-11-04T09:33:26.901Z,89.57
2017-11-04T09:35:55.242Z,90.00
2017-11-04T09:38:23.534Z,90.02
2017-11-04T09:40:51.871Z,89.76
2017-11-04T09:43:20.945Z,89.61
2017-11-04T09:45:49.284Z,89.77
2017-11-04T09:48:17.589Z,89.02
2017-11-04T09:50:45.894Z,89.30
2017-11-04T09:53:14.943Z,88.67
2017-11-04T09:55:43.270Z,88.25
2017-11-04T09:58:11.592Z,87.09
2017-11-04T10:00:39.922Z,86.28
2017-11-04T10:03:09.016Z,85.93
2017-11-04T10:05:38.109Z,85.84
2017-11-04T10:08:07.200Z,85.59
2017-11-04T10:10:36.292Z,85.36
2017-11-04T10:13:04.613Z,84.40
2017-11-04T10:15:32.932Z,85.07
2017-11-04T10:18:01.278Z,85.45
2017-11-04T10:20:29.601Z,86.84
2017-11-04T10:22:58.677Z,85.49
2017-11-04T10:25:27.029Z,86.51
2017-11-04T10:27:55.344Z,86.82
2017-11-04T10:30:23.650Z,86.97
2017-11-04T10:32:51.974Z,86.09
2017-11-04T10:35:20.305Z,85.00
2017-11-04T10:37:48.615Z,84.36
2017-11-04T10:40:16.934Z,82.46
2017-11-04T10:42:46.057Z,82.74
2017-11-04T10:45:14.380Z,84.77
2017-11-04T10:47:42.698Z,84.08
2017-11-04T10:50:11.757Z,83.80
2017-11-04T10:52:40.093Z,83.57
2017-11-04T10:55:08.411Z,83.94
2017-11-04T10:57:36.742Z,83.83
2017-11-04T11:00:05.039Z,83.01
2017-11-04T11:02:33.366Z,83.16
2017-11-04T11:05:02.458Z,82.77
2017-11-04T11:07:31.534Z,81.10
2017-11-04T11:09:59.858Z,78.66
2017-11-04T11:12:28.146Z,78.58
2017-11-04T11:14:56.435Z,80.03
2017-11-04T11:17:24.764Z,80.30
2017-11-04T11:19:53.830Z,78.61
2017-11-04T11:22:22.188Z,76.34
2017-11-04T11:24:50.482Z,73.32
2017-11-04T11:27:18.785Z,74.61
2017-11-04T11:29:47.033Z,74.42
2017-11-04T11:32:15.284Z,76.35
2017-11-04T11:34:43.533Z,74.88
2017-11-04T11:37:12.541Z,74.78
2017-11-04T11:39:40.781Z,74.99
2017-11-04T11:42:09.801Z,74.97
2017-11-04T11:44:38.058Z,73.65
2017-11-04T11:47:07.072Z,74.67
2017-11-04T11:49:35.322Z,75.93
2017-11-04T11:52:04.329Z,76.09
2017-11-04T11:54:32.573Z,75.98
2017-11-04T11:57:00.830Z,73.89
2017-11-04T11:59:29.083Z,70.62
2017-11-04T12:01:57.339Z,69.65
2017-11-04T12:04:25.585Z,67.13
2017-11-04T12:06:53.846Z,67.89
2017-11-04T12:09:22.093Z,69.14
2017-11-04T12:11:50.355Z,64.61
2017-11-04T12:14:18.607Z,62.98
2017-11-04T12:16:47.625Z,62.04
2017-11-04T12:19:15.873Z,61.60
2017-11-04T12:21:44.896Z,63.02
2017-11-04T12:24:13.137Z,62.05
2017-11-04T12:26:42.160Z,62.71
2017-11-04T12:29:10.407Z,61.81
2017-11-04T12:31:39.425Z,60.28
2017-11-04T12:34:07.680Z,61.60
2017-11-04T12:36:36.700Z,60.77
2017-11-04T12:39:04.948Z,60.01
2017-11-04T12:41:33.963Z,61.67
2017-11-04T12:44:02.209Z,62.08
2017-11-04T12:46:31.229Z,61.42
2017-11-04T12:48:59.473Z,64.25
2017-11-04T12:51:28.496Z,62.92
2017-11-04T12:53:56.746Z,61.20
2017-11-04T12:56:25.764Z,65.10
2017-11-04T12:58:54.008Z,56.49
2017-11-04T13:01:22.259Z,55.75
2017-11-04T13:03:50.505Z,57.93
2017-11-04T13:06:18.762Z,63.79
2017-11-04T13:08:47.006Z,63.60
2017-11-04T13:11:16.035Z,64.93
2017-11-04T13:13:44.281Z,60.57
2017-11-04T13:16:13.298Z,62.22
2017-11-04T13:18:41.546Z,58.03
2017-11-04T13:21:10.576Z,58.88
2017-11-04T13:23:38.814Z,57.43
2017-11-04T13:26:07.834Z,57.30
2017-11-04T13:28:36.082Z,58.51
2017-11-04T13:31:05.122Z,56.31
2017-11-04T13:33:33.357Z,60.18
2017-11-04T13:36:02.376Z,60.81
2017-11-04T13:38:30.617Z,62.29
2017-11-04T13:40:59.633Z,64.97
2017-11-04T13:43:27.881Z,62.14
2017-11-04T13:45:56.145Z,62.90
2017-11-04T13:48:24.398Z,62.81
2017-11-04T13:50:52.670Z,63.13
2017-11-04T13:53:20.918Z,64.19
2017-11-04T13:55:49.165Z,65.96
2017-11-04T13:58:18.190Z,67.09
2017-11-04T14:00:46.446Z,67.47
2017-11-04T14:03:15.465Z,67.82
2017-11-04T14:05:43.709Z,67.91
2017-11-04T14:08:12.736Z,67.76
2017-11-04T14:10:40.973Z,68.89
2017-11-04T14:13:09.993Z,69.57
2017-11-04T14:15:38.251Z,69.90
2017-11-04T14:18:07.262Z,69.90
2017-11-04T14:20:35.509Z,70.55
2017-11-04T14:23:04.525Z,71.33
2017-11-04T14:25:32.777Z,70.91
2017-11-04T14:28:01.800Z,70.40
2017-11-04T14:30:30.050Z,70.93
2017-11-04T14:32:59.074Z,71.19
2017-11-04T14:35:27.325Z,71.01
2017-11-04T14:37:56.342Z,71.43
2017-11-04T14:40:24.593Z,71.51
2017-11-04T14:42:53.622Z,72.11
2017-11-04T14:45:21.869Z,72.33
2017-11-04T14:47:50.125Z,72.09
2017-11-04T14:50:19.139Z,72.58
2017-11-04T14:52:47.400Z,72.81
2017-11-04T14:55:16.406Z,72.89
2017-11-04T14:57:44.663Z,72.99
2017-11-04T15:00:13.678Z,73.37
2017-11-04T15:02:41.934Z,72.77
2017-11-04T15:05:10.954Z,72.87
2017-11-04T15:07:39.209Z,72.87
2017-11-04T15:10:08.229Z,72.61
2017-11-04T15:12:36.486Z,72.77
2017-11-04T15:15:04.745Z,72.74
2017-11-04T15:17:33.770Z,73.08
2017-11-04T15:20:02.020Z,72.84
2017-11-04T15:22:31.050Z,72.93
2017-11-04T15:24:59.304Z,72.83
2017-11-04T15:27:27.559Z,72.35
2017-11-04T15:29:56.575Z,72.29
2017-11-04T15:32:24.834Z,72.57
2017-11-04T15:34:53.860Z,72.53
2017-11-04T15:37:22.109Z,72.76
2017-11-04T15:39:50.372Z,72.65
2017-11-04T15:42:18.626Z,72.66
2017-11-04T15:44:46.873Z,72.88
2017-11-04T15:47:15.130Z,72.62
2017-11-04T15:49:43.381Z,73.00
2017-11-04T15:52:12.406Z,73.45
2017-11-04T15:54:40.661Z,73.33
2017-11-04T15:57:08.917Z,73.61
2017-11-04T15:59:37.938Z,73.83
2017-11-04T16:02:06.190Z,73.65
2017-11-04T16:04:35.202Z,73.96
2017-11-04T16:07:03.464Z,74.02
2017-11-04T16:09:32.469Z,74.26
2017-11-04T16:12:00.733Z,75.26
2017-11-04T16:14:29.754Z,74.82
2017-11-04T16:16:58.013Z,74.92
2017-11-04T16:19:26.265Z,75.08
2017-11-04T16:21:55.289Z,75.24
2017-11-04T16:24:23.545Z,75.92
2017-11-04T16:26:52.573Z,76.36
2017-11-04T16:29:20.822Z,76.27
2017-11-04T16:31:49.083Z,76.28
2017-11-04T16:34:18.107Z,76.27
2017-11-04T16:36:46.361Z,76.75
2017-11-04T16:39:15.379Z,76.63
2017-11-04T16:41:43.635Z,76.61
2017-11-04T16:44:11.889Z,75.89
2017-11-04T16:46:40.918Z,75.82
2017-11-04T16:49:09.173Z,75.82
2017-11-04T16:51:38.197Z,75.56
2017-11-04T16:54:06.441Z,75.54
2017-11-04T16:56:34.726Z,75.35
2017-11-04T16:59:02.977Z,75.31
2017-11-04T17:01:31.226Z,75.44
2017-11-04T17:03:59.546Z,75.30
2017-11-04T17:06:28.554Z,75.45
2017-11-04T17:08:56.809Z,75.31
2017-11-04T17:11:25.829Z,75.66
2017-11-04T17:13:54.097Z,76.14
2017-11-04T17:16:22.354Z,76.35
2017-11-04T17:18:51.382Z,76.61
2017-11-04T17:21:19.630Z,76.53
2017-11-04T17:23:48.753Z,76.75
2017-11-04T17:26:16.998Z,76.22
2017-11-04T17:28:46.033Z,76.46
2017-11-04T17:31:14.277Z,76.42
2017-11-04T17:33:42.541Z,77.12
2017-11-04T17:36:11.554Z,77.19
2017-11-04T17:38:39.820Z,77.18
2017-11-04T17:41:08.066Z,77.45
2017-11-04T17:43:36.321Z,77.63
2017-11-04T17:46:04.577Z,77.91
2017-11-04T17:48:32.837Z,78.13
2017-11-04T17:51:01.094Z,79.08
2017-11-04T17:53:30.131Z,79.24
2017-11-04T17:55:58.446Z,79.50
2017-11-04T17:58:26.695Z,79.20
2017-11-04T18:00:54.955Z,78.89
2017-11-04T18:03:23.210Z,78.96
2017-11-04T18:05:51.483Z,79.03
2017-11-04T18:08:19.739Z,79.08
2017-11-04T18:10:48.754Z,79.08
2017-11-04T18:13:17.013Z,78.97
2017-11-04T18:15:45.267Z,79.06
2017-11-04T18:18:14.286Z,78.93
2017-11-04T18:20:42.597Z,78.99
2017-11-04T18:23:10.843Z,79.30
2017-11-04T18:25:39.097Z,79.49
2017-11-04T18:28:08.155Z,79.44
2017-11-04T18:30:36.411Z,79.31
2017-11-04T18:33:04.725Z,79.44
2017-11-04T18:35:33.021Z,79.63
2017-11-04T18:38:02.633Z,79.75
2017-11-04T18:40:31.641Z,79.55
2017-11-04T18:42:59.901Z,79.62
2017-11-04T18:45:28.154Z,79.61
2017-11-04T18:47:56.461Z,79.79
2017-11-04T18:50:24.706Z,79.69
2017-11-04T18:52:53.014Z,79.73
2017-11-04T18:55:21.267Z,79.84
2017-11-04T18:57:50.333Z,79.87
2017-11-04T19:00:18.580Z,79.94
2017-11-04T19:02:46.838Z,80.11
2017-11-04T19:05:15.142Z,80.41
2017-11-04T19:07:43.398Z,80.55
2017-11-04T19:10:11.654Z,80.46
2017-11-04T19:12:39.914Z,80.69
2017-11-04T19:15:08.935Z,80.77
2017-11-04T19:17:37.206Z,81.02
2017-11-04T19:20:05.637Z,80.97
2017-11-04T19:22:33.980Z,80.55
2017-11-04T19:25:02.413Z,80.90
2017-11-04T19:27:30.744Z,80.63
2017-11-04T19:29:59.047Z,80.80
2017-11-04T19:32:27.353Z,80.85
2017-11-04T19:34:56.426Z,81.44
2017-11-04T19:37:24.766Z,81.44
2017-11-04T19:39:53.091Z,81.54
2017-11-04T19:42:21.467Z,81.55
2017-11-04T19:44:49.836Z,81.71
2017-11-04T19:47:18.208Z,81.50
2017-11-04T19:49:47.242Z,81.93
2017-11-04T19:52:15.546Z,82.24
2017-11-04T19:54:43.864Z,82.37
2017-11-04T19:57:12.987Z,81.88
2017-11-04T19:59:42.138Z,82.21
2017-11-04T20:02:11.264Z,82.39
2017-11-04T20:04:39.560Z,82.82
2017-11-04T20:07:08.617Z,82.90
2017-11-04T20:09:36.867Z,83.11
2017-11-04T20:12:05.126Z,83.65
2017-11-04T20:14:33.397Z,84.23
2017-11-04T20:17:01.670Z,84.70
2017-11-04T20:19:29.955Z,84.93
2017-11-04T20:21:58.220Z,85.73
2017-11-04T20:24:26.468Z,86.11
2017-11-04T20:26:55.523Z,86.00
2017-11-04T20:29:23.812Z,86.82
2017-11-04T20:31:52.051Z,87.25
2017-11-04T20:34:20.302Z,87.65
2017-11-04T20:36:49.357Z,87.88
2017-11-04T20:39:17.598Z,88.17
2017-11-04T20:41:45.896Z,87.76
2017-11-04T20:44:14.143Z,87.38
2017-11-04T20:46:42.417Z,87.32
2017-11-04T20:49:10.666Z,86.87
2017-11-04T20:51:39.728Z,87.50
2017-11-04T20:54:08.021Z,87.67
2017-11-04T20:56:36.314Z,87.97
2017-11-04T20:59:05.372Z,88.58
2017-11-04T21:01:33.654Z,88.52
2017-11-04T21:04:01.949Z,88.60
2017-11-04T21:06:30.242Z,88.31
2017-11-04T21:08:59.270Z,88.58
2017-11-04T21:11:27.535Z,88.46
2017-11-04T21:13:55.786Z,88.43
2017-11-04T21:16:24.841Z,88.76
2017-11-04T21:18:53.194Z,88.99
2017-11-04T21:21:21.473Z,89.23
2017-11-04T21:23:49.710Z,89.20
2017-11-04T21:26:18.744Z,89.57
2017-11-04T21:28:47.862Z,89.52
2017-11-04T21:31:16.119Z,89.52
2017-11-04T21:33:44.377Z,88.70
2017-11-04T21:36:12.610Z,89.79
2017-11-04T21:38:41.677Z,89.60
2017-11-04T21:41:09.966Z,89.88
2017-11-04T21:43:38.214Z,89.88
2017-11-04T21:46:06.516Z,90.05
2017-11-04T21:48:34.813Z,89.95
2017-11-04T21:51:03.876Z,90.23
2017-11-04T21:53:33.638Z,90.31
2017-11-04T21:56:01.993Z,90.99
2017-11-04T21:58:30.806Z,90.91
2017-11-04T22:00:59.110Z,90.86
2017-11-04T22:03:27.405Z,90.48
2017-11-04T22:05:55.701Z,90.54
2017-11-04T22:08:24.032Z,91.13
2017-11-04T22:10:52.334Z,91.06
2017-11-04T22:13:20.583Z,91.72
2017-11-04T22:15:49.645Z,91.72
2017-11-04T22:18:18.720Z,91.70
2017-11-04T22:20:47.013Z,91.75
2017-11-04T22:23:16.072Z,91.71
2017-11-04T22:25:44.315Z,91.79
2017-11-04T22:28:12.573Z,91.80
2017-11-04T22:30:40.821Z,92.07
2017-11-04T22:33:09.893Z,91.71
2017-11-04T22:35:38.143Z,91.25
2017-11-04T22:38:06.392Z,90.92
2017-11-04T22:40:34.637Z,90.95
2017-11-04T22:43:02.881Z,91.05
2017-11-04T22:45:31.138Z,90.91
2017-11-04T22:47:59.438Z,91.11
2017-11-04T22:50:27.678Z,91.16
2017-11-04T22:52:55.925Z,91.56
2017-11-04T22:55:25.002Z,91.63
2017-11-04T22:57:53.241Z,91.56
2017-11-04T23:00:21.540Z,91.50
2017-11-04T23:02:50.542Z,91.59
2017-11-04T23:05:18.840Z,91.77
2017-11-04T23:07:47.845Z,91.74
2017-11-04T23:10:16.097Z,91.69
2017-11-04T23:12:44.391Z,91.71
2017-11-04T23:15:13.399Z,91.82
2017-11-04T23:17:41.649Z,91.67
2017-11-04T23:20:10.746Z,91.60
2017-11-04T23:22:38.987Z,91.79
2017-11-04T23:25:07.272Z,91.62
2017-11-04T23:27:36.275Z,91.60
2017-11-04T23:30:04.526Z,91.67
2017-11-04T23:32:32.771Z,91.72
2017-11-04T23:35:01.022Z,91.82
2017-11-04T23:37:30.133Z,91.91
2017-11-04T23:39:58.387Z,91.72
2017-11-04T23:42:27.396Z,91.83
2017-11-04T23:44:55.645Z,91.78
2017-11-04T23:47:23.887Z,91.70
2017-11-04T23:49:52.142Z,92.03
2017-11-04T23:52:20.386Z,92.21
2017-11-04T23:54:49.411Z,92.01
2017-11-04T23:57:17.653Z,92.32
2017-11-04T23:59:47.389Z,92.63
